createdAt,value
2018-04-07T00:00:04.990Z,6.05
2018-04-07T00:01:04.982Z,6.04
2018-04-07T00:02:04.975Z,5.93
2018-04-07T00:03:04.968Z,5.97
2018-04-07T00:04:04.963Z,5.90
2018-04-07T00:05:04.957Z,5.97
2018-04-07T00:06:04.976Z,5.91
2018-04-07T00:07:04.943Z,5.82
2018-04-07T00:08:04.936Z,5.84
2018-04-07T00:09:04.938Z,5.79
2018-04-07T00:10:04.925Z,5.79
2018-04-07T00:11:04.927Z,5.72
2018-04-07T00:12:04.924Z,5.72
2018-04-07T00:13:04.905Z,5.73
2018-04-07T00:14:04.897Z,5.65
2018-04-07T00:15:04.891Z,5.57
2018-04-07T00:16:04.884Z,5.57
2018-04-07T00:17:04.880Z,5.64
2018-04-07T00:18:04.873Z,5.53
2018-04-07T00:19:04.865Z,5.56
2018-04-07T00:20:04.868Z,5.59
2018-04-07T00:21:04.854Z,5.61
2018-04-07T00:22:04.845Z,5.53
2018-04-07T00:23:04.838Z,5.61
2018-04-07T00:24:04.837Z,5.61
2018-04-07T00:25:04.826Z,5.57
2018-04-07T00:26:04.818Z,5.53
2018-04-07T00:27:04.815Z,5.53
2018-04-07T00:28:04.805Z,5.57
2018-04-07T00:29:04.809Z,5.51
2018-04-07T00:30:04.792Z,5.44
2018-04-07T00:31:04.786Z,5.43
2018-04-07T00:32:04.781Z,5.51
2018-04-07T00:33:04.772Z,5.47
2018-04-07T00:34:04.766Z,5.46
2018-04-07T00:35:04.758Z,5.46
2018-04-07T00:36:04.751Z,5.46
2018-04-07T00:37:04.776Z,5.50
2018-04-07T00:38:04.740Z,5.44
2018-04-07T00:39:04.732Z,5.44
2018-04-07T00:40:04.727Z,5.41
2018-04-07T00:41:04.774Z,5.33
2018-04-07T00:42:04.712Z,5.44
2018-04-07T00:43:04.713Z,5.39
2018-04-07T00:44:04.713Z,5.35
2018-04-07T00:45:04.694Z,5.32
2018-04-07T00:46:06.028Z,5.38
2018-04-07T00:47:05.544Z,5.47
2018-04-07T00:48:05.600Z,5.43
2018-04-07T00:49:05.706Z,5.33
2018-04-07T00:50:04.659Z,5.38
2018-04-07T00:51:04.653Z,5.35
2018-04-07T00:52:04.646Z,5.30
2018-04-07T00:53:04.671Z,5.29
2018-04-07T00:54:04.632Z,5.35
2018-04-07T00:55:04.628Z,5.30
2018-04-07T00:56:04.627Z,5.29
2018-04-07T00:57:04.612Z,5.29
2018-04-07T00:58:04.617Z,5.29
2018-04-07T00:59:04.597Z,5.32
2018-04-07T01:00:04.594Z,5.30
2018-04-07T01:01:04.582Z,5.29
2018-04-07T01:02:04.579Z,5.32
2018-04-07T01:03:04.570Z,5.28
2018-04-07T01:04:04.585Z,5.29
2018-04-07T01:05:04.571Z,5.33
2018-04-07T01:06:04.648Z,5.32
2018-04-07T01:07:04.547Z,5.38
2018-04-07T01:08:04.644Z,5.30
2018-04-07T01:09:04.534Z,5.33
2018-04-07T01:10:04.530Z,5.29
2018-04-07T01:11:04.549Z,5.26
2018-04-07T01:12:05.577Z,5.28
2018-04-07T01:13:04.506Z,5.26
2018-04-07T01:14:04.494Z,5.12
2018-04-07T01:15:04.490Z,5.11
2018-04-07T01:16:04.491Z,5.14
2018-04-07T01:17:04.475Z,5.12
2018-04-07T01:18:04.478Z,5.15
2018-04-07T01:19:04.463Z,5.17
2018-04-07T01:20:04.459Z,5.10
2018-04-07T01:21:04.449Z,5.12
2018-04-07T01:22:04.450Z,5.10
2018-04-07T01:23:04.441Z,5.12
2018-04-07T01:24:04.426Z,5.08
2018-04-07T01:25:04.422Z,5.08
2018-04-07T01:26:04.420Z,5.04
2018-04-07T01:27:04.407Z,5.04
2018-04-07T01:28:04.400Z,5.04
2018-04-07T01:29:04.394Z,4.96
2018-04-07T01:30:04.389Z,4.97
2018-04-07T01:31:04.458Z,4.89
2018-04-07T01:32:04.373Z,4.89
2018-04-07T01:33:04.365Z,4.86
2018-04-07T01:34:04.356Z,4.92
2018-04-07T01:35:04.353Z,4.93
2018-04-07T01:36:04.357Z,4.90
2018-04-07T01:37:04.337Z,4.77
2018-04-07T01:38:04.437Z,4.74
2018-04-07T01:39:04.323Z,4.75
2018-04-07T01:40:04.315Z,4.75
2018-04-07T01:41:04.310Z,4.80
2018-04-07T01:42:04.300Z,4.77
2018-04-07T01:43:04.316Z,4.71
2018-04-07T01:44:04.300Z,4.70
2018-04-07T01:45:04.296Z,4.70
2018-04-07T01:46:04.272Z,4.63
2018-04-07T01:47:04.264Z,4.60
2018-04-07T01:48:04.257Z,4.67
2018-04-07T01:49:04.264Z,4.67
2018-04-07T01:50:04.245Z,4.67
2018-04-07T01:51:04.269Z,4.59
2018-04-07T01:52:04.229Z,4.66
2018-04-07T01:53:04.221Z,4.70
2018-04-07T01:54:04.213Z,4.60
2018-04-07T01:55:04.246Z,4.62
2018-04-07T01:56:04.198Z,4.67
2018-04-07T01:57:04.234Z,4.66
2018-04-07T01:58:04.196Z,4.62
2018-04-07T01:59:04.177Z,4.58
2018-04-07T02:00:04.171Z,4.62
2018-04-07T02:01:04.162Z,4.63
2018-04-07T02:02:04.154Z,4.66
2018-04-07T02:03:04.149Z,4.66
2018-04-07T02:04:04.143Z,4.66
2018-04-07T02:05:04.215Z,4.63
2018-04-07T02:06:04.125Z,4.63
2018-04-07T02:07:04.124Z,4.58
2018-04-07T02:08:04.120Z,4.59
2018-04-07T02:09:04.107Z,4.50
2018-04-07T02:10:04.138Z,4.55
2018-04-07T02:11:04.098Z,4.59
2018-04-07T02:12:04.082Z,4.66
2018-04-07T02:13:04.074Z,4.50
2018-04-07T02:14:04.071Z,4.53
2018-04-07T02:15:04.061Z,4.53
2018-04-07T02:16:04.052Z,4.56
2018-04-07T02:17:04.045Z,4.60
2018-04-07T02:18:04.038Z,4.62
2018-04-07T02:19:04.030Z,4.52
2018-04-07T02:20:04.022Z,4.52
2018-04-07T02:21:04.014Z,4.48
2018-04-07T02:22:04.010Z,4.42
2018-04-07T02:23:04.003Z,4.35
2018-04-07T02:24:03.996Z,4.34
2018-04-07T02:25:03.985Z,4.26
2018-04-07T02:26:03.977Z,4.31
2018-04-07T02:27:03.972Z,4.26
2018-04-07T02:28:03.963Z,4.23
2018-04-07T02:29:03.956Z,4.13
2018-04-07T02:30:03.948Z,4.19
2018-04-07T02:31:03.941Z,4.20
2018-04-07T02:32:03.933Z,4.22
2018-04-07T02:33:03.925Z,4.16
2018-04-07T02:34:03.917Z,4.10
2018-04-07T02:35:03.911Z,4.10
2018-04-07T02:36:03.902Z,4.17
2018-04-07T02:37:03.895Z,4.01
2018-04-07T02:38:03.892Z,4.02
2018-04-07T02:39:03.879Z,4.01
2018-04-07T02:40:03.873Z,3.87
2018-04-07T02:41:03.866Z,3.92
2018-04-07T02:42:03.857Z,3.99
2018-04-07T02:43:03.850Z,3.96
2018-04-07T02:44:03.844Z,3.94
2018-04-07T02:45:03.835Z,3.92
2018-04-07T02:46:03.823Z,3.95
2018-04-07T02:47:03.820Z,4.01
2018-04-07T02:48:03.813Z,3.96
2018-04-07T02:49:03.802Z,4.01
2018-04-07T02:50:03.798Z,4.05
2018-04-07T02:51:03.787Z,4.02
2018-04-07T02:52:03.783Z,3.98
2018-04-07T02:53:03.769Z,4.01
2018-04-07T02:54:03.766Z,4.01
2018-04-07T02:55:03.759Z,3.92
2018-04-07T02:56:03.747Z,3.87
2018-04-07T02:57:03.738Z,3.96
2018-04-07T02:58:03.733Z,3.95
2018-04-07T02:59:03.725Z,3.88
2018-04-07T03:00:03.716Z,3.86
2018-04-07T03:01:03.711Z,3.87
2018-04-07T03:02:03.712Z,3.84
2018-04-07T03:03:03.693Z,3.87
2018-04-07T03:04:03.685Z,3.83
2018-04-07T03:05:03.678Z,3.94
2018-04-07T03:06:03.669Z,3.94
2018-04-07T03:07:03.662Z,3.99
2018-04-07T03:08:03.654Z,3.99
2018-04-07T03:09:03.644Z,3.98
2018-04-07T03:10:03.640Z,4.01
2018-04-07T03:11:03.629Z,4.01
2018-04-07T03:12:03.621Z,3.99
2018-04-07T03:13:03.614Z,3.98
2018-04-07T03:14:03.605Z,3.98
2018-04-07T03:15:03.610Z,3.88
2018-04-07T03:16:03.589Z,3.91
2018-04-07T03:17:03.581Z,3.84
2018-04-07T03:18:39.083Z,3.84
2018-04-07T03:19:03.567Z,3.77
2018-04-07T03:20:03.558Z,3.76
2018-04-07T03:21:03.551Z,3.80
2018-04-07T03:22:03.548Z,3.65
2018-04-07T03:23:03.536Z,3.74
2018-04-07T03:24:03.529Z,3.65
2018-04-07T03:25:03.518Z,3.69
2018-04-07T03:26:03.511Z,3.66
2018-04-07T03:27:03.503Z,3.59
2018-04-07T03:28:03.494Z,3.69
2018-04-07T03:29:03.489Z,3.74
2018-04-07T03:30:03.480Z,3.68
2018-04-07T03:31:03.473Z,3.63
2018-04-07T03:32:03.467Z,3.63
2018-04-07T03:33:03.454Z,3.69
2018-04-07T03:34:03.450Z,3.73
2018-04-07T03:35:03.443Z,3.59
2018-04-07T03:36:03.432Z,3.69
2018-04-07T03:37:03.422Z,3.59
2018-04-07T03:38:03.415Z,3.59
2018-04-07T03:39:03.408Z,3.59
2018-04-07T03:40:03.401Z,3.68
2018-04-07T03:41:03.392Z,3.60
2018-04-07T03:42:03.387Z,3.69
2018-04-07T03:43:03.375Z,3.58
2018-04-07T03:44:03.370Z,3.59
2018-04-07T03:45:03.360Z,3.70
2018-04-07T03:46:03.353Z,3.59
2018-04-07T03:47:03.344Z,3.65
2018-04-07T03:48:03.337Z,3.59
2018-04-07T03:49:03.329Z,3.59
2018-04-07T03:50:03.319Z,3.62
2018-04-07T03:51:03.337Z,3.65
2018-04-07T03:52:03.304Z,3.60
2018-04-07T03:53:03.296Z,3.62
2018-04-07T03:54:03.287Z,3.68
2018-04-07T03:55:03.283Z,3.65
2018-04-07T03:56:03.272Z,3.73
2018-04-07T03:57:03.263Z,3.73
2018-04-07T03:58:03.255Z,3.74
2018-04-07T03:59:03.248Z,3.68
2018-04-07T04:00:03.243Z,3.70
2018-04-07T04:01:03.230Z,3.73
2018-04-07T04:02:03.226Z,3.76
2018-04-07T04:03:03.216Z,3.78
2018-04-07T04:04:03.208Z,3.74
2018-04-07T04:05:03.198Z,3.69
2018-04-07T04:06:03.191Z,3.74
2018-04-07T04:07:03.183Z,3.74
2018-04-07T04:08:03.176Z,3.65
2018-04-07T04:09:03.168Z,3.63
2018-04-07T04:10:03.158Z,3.70
2018-04-07T04:11:03.154Z,3.74
2018-04-07T04:12:03.145Z,3.77
2018-04-07T04:13:03.138Z,3.68
2018-04-07T04:14:03.130Z,3.70
2018-04-07T04:15:03.119Z,3.62
2018-04-07T04:16:03.115Z,3.56
2018-04-07T04:17:03.102Z,3.63
2018-04-07T04:18:03.094Z,3.62
2018-04-07T04:19:03.086Z,3.68
2018-04-07T04:20:03.080Z,3.60
2018-04-07T04:21:03.073Z,3.68
2018-04-07T04:22:03.063Z,3.59
2018-04-07T04:23:03.053Z,3.74
2018-04-07T04:24:03.045Z,3.66
2018-04-07T04:25:03.039Z,3.70
2018-04-07T04:26:03.029Z,3.73
2018-04-07T04:27:03.021Z,3.69
2018-04-07T04:28:03.014Z,3.59
2018-04-07T04:29:03.004Z,3.70
2018-04-07T04:30:02.999Z,3.70
2018-04-07T04:31:02.990Z,3.66
2018-04-07T04:32:02.986Z,3.73
2018-04-07T04:33:02.972Z,3.60
2018-04-07T04:34:02.964Z,3.65
2018-04-07T04:35:02.962Z,3.58
2018-04-07T04:36:02.948Z,3.65
2018-04-07T04:37:02.940Z,3.62
2018-04-07T04:38:02.932Z,3.66
2018-04-07T04:39:02.927Z,3.58
2018-04-07T04:40:02.916Z,3.60
2018-04-07T04:41:02.906Z,3.58
2018-04-07T04:42:02.901Z,3.55
2018-04-07T04:43:02.898Z,3.60
2018-04-07T04:44:02.883Z,3.58
2018-04-07T04:45:02.875Z,3.53
2018-04-07T04:46:02.866Z,3.55
2018-04-07T04:47:02.858Z,3.58
2018-04-07T04:48:02.852Z,3.55
2018-04-07T04:49:02.841Z,3.53
2018-04-07T04:50:02.839Z,3.55
2018-04-07T04:51:02.827Z,3.50
2018-04-07T04:52:02.818Z,3.56
2018-04-07T04:53:02.812Z,3.55
2018-04-07T04:54:02.803Z,3.63
2018-04-07T04:55:02.846Z,3.56
2018-04-07T04:56:02.784Z,3.58
2018-04-07T04:57:02.779Z,3.62
2018-04-07T04:58:02.768Z,3.65
2018-04-07T04:59:02.764Z,3.73
2018-04-07T05:00:02.752Z,3.74
2018-04-07T05:01:02.742Z,3.76
2018-04-07T05:02:02.737Z,3.70
2018-04-07T05:03:02.727Z,3.70
2018-04-07T05:04:02.720Z,3.81
2018-04-07T05:05:02.711Z,3.83
2018-04-07T05:06:02.703Z,3.92
2018-04-07T05:07:02.698Z,3.87
2018-04-07T05:08:02.687Z,4.01
2018-04-07T05:09:02.679Z,4.01
2018-04-07T05:10:02.670Z,4.01
2018-04-07T05:11:02.664Z,4.01
2018-04-07T05:12:02.655Z,4.08
2018-04-07T05:13:02.647Z,4.06
2018-04-07T05:14:02.641Z,3.99
2018-04-07T05:15:02.646Z,4.10
2018-04-07T05:16:02.624Z,4.16
2018-04-07T05:17:02.619Z,4.12
2018-04-07T05:18:02.608Z,4.14
2018-04-07T05:19:02.602Z,4.16
2018-04-07T05:20:02.591Z,4.23
2018-04-07T05:21:02.585Z,4.14
2018-04-07T05:22:02.576Z,4.20
2018-04-07T05:23:02.577Z,4.30
2018-04-07T05:24:02.561Z,4.28
2018-04-07T05:25:02.552Z,4.32
2018-04-07T05:26:02.547Z,4.44
2018-04-07T05:27:02.537Z,4.52
2018-04-07T05:28:02.534Z,4.52
2018-04-07T05:29:02.522Z,4.52
2018-04-07T05:30:02.515Z,4.49
2018-04-07T05:31:02.509Z,4.50
2018-04-07T05:32:02.502Z,4.53
2018-04-07T05:33:02.490Z,4.53
2018-04-07T05:34:02.483Z,4.53
2018-04-07T05:35:02.480Z,4.50
2018-04-07T05:36:02.469Z,4.52
2018-04-07T05:37:02.463Z,4.56
2018-04-07T05:38:02.454Z,4.56
2018-04-07T05:39:02.445Z,4.60
2018-04-07T05:40:02.447Z,4.77
2018-04-07T05:41:02.431Z,4.75
2018-04-07T05:42:02.435Z,4.80
2018-04-07T05:43:02.418Z,4.84
2018-04-07T05:44:02.413Z,4.87
2018-04-07T05:45:02.401Z,4.90
2018-04-07T05:46:02.395Z,4.84
2018-04-07T05:47:02.387Z,4.93
2018-04-07T05:48:02.380Z,4.89
2018-04-07T05:49:02.372Z,4.90
2018-04-07T05:50:02.368Z,4.87
2018-04-07T05:51:02.358Z,4.94
2018-04-07T05:52:02.355Z,4.92
2018-04-07T05:53:02.343Z,4.89
2018-04-07T05:54:02.342Z,4.96
2018-04-07T05:55:02.329Z,5.04
2018-04-07T05:56:02.323Z,5.11
2018-04-07T05:57:02.314Z,5.12
2018-04-07T05:58:02.309Z,5.05
2018-04-07T05:59:02.305Z,5.18
2018-04-07T06:00:02.297Z,5.11
2018-04-07T06:01:02.293Z,5.23
2018-04-07T06:02:02.280Z,5.28
2018-04-07T06:03:02.270Z,5.29
2018-04-07T06:04:02.265Z,5.26
2018-04-07T06:05:02.257Z,5.29
2018-04-07T06:06:02.255Z,5.41
2018-04-07T06:07:02.244Z,5.41
2018-04-07T06:08:02.239Z,5.38
2018-04-07T06:09:02.229Z,5.39
2018-04-07T06:10:02.221Z,5.39
2018-04-07T06:11:02.219Z,5.41
2018-04-07T06:12:02.208Z,5.35
2018-04-07T06:13:02.200Z,5.41
2018-04-07T06:14:02.193Z,5.41
2018-04-07T06:15:02.185Z,5.46
2018-04-07T06:16:02.180Z,5.47
2018-04-07T06:17:02.172Z,5.47
2018-04-07T06:18:02.165Z,5.50
2018-04-07T06:19:02.159Z,5.43
2018-04-07T06:20:02.158Z,5.44
2018-04-07T06:21:02.149Z,5.38
2018-04-07T06:22:02.137Z,5.35
2018-04-07T06:23:02.129Z,5.35
2018-04-07T06:24:02.122Z,5.32
2018-04-07T06:25:02.116Z,5.38
2018-04-07T06:26:02.109Z,5.38
2018-04-07T06:27:02.105Z,5.47
2018-04-07T06:28:02.095Z,5.43
2018-04-07T06:29:02.088Z,5.46
2018-04-07T06:30:02.084Z,5.43
2018-04-07T06:31:02.073Z,5.61
2018-04-07T06:32:02.072Z,5.61
2018-04-07T06:33:02.058Z,5.53
2018-04-07T06:34:02.051Z,5.51
2018-04-07T06:35:02.050Z,5.61
2018-04-07T06:36:02.040Z,5.57
2018-04-07T06:37:02.029Z,5.66
2018-04-07T06:38:02.024Z,5.72
2018-04-07T06:39:02.016Z,5.75
2018-04-07T06:40:02.010Z,5.73
2018-04-07T06:41:02.005Z,5.82
2018-04-07T06:42:02.015Z,5.86
2018-04-07T06:43:01.990Z,5.83
2018-04-07T06:44:01.983Z,5.87
2018-04-07T06:45:01.975Z,5.94
2018-04-07T06:46:01.968Z,5.97
2018-04-07T06:47:01.962Z,6.05
2018-04-07T06:48:02.007Z,6.07
2018-04-07T06:49:01.946Z,6.02
2018-04-07T06:50:01.944Z,6.12
2018-04-07T06:51:01.950Z,6.20
2018-04-07T06:52:01.931Z,6.17
2018-04-07T06:53:01.923Z,6.17
2018-04-07T06:54:01.913Z,6.27
2018-04-07T06:55:01.954Z,6.31
2018-04-07T06:56:01.902Z,6.42
2018-04-07T06:57:01.898Z,6.44
2018-04-07T06:58:01.898Z,6.51
2018-04-07T06:59:01.886Z,6.51
2018-04-07T07:00:01.875Z,6.60
2018-04-07T07:01:01.867Z,6.54
2018-04-07T07:02:01.862Z,6.63
2018-04-07T07:03:01.886Z,6.72
2018-04-07T07:04:01.852Z,6.78
2018-04-07T07:05:01.842Z,6.82
2018-04-07T07:06:01.835Z,6.79
2018-04-07T07:07:01.831Z,6.85
2018-04-07T07:08:01.823Z,6.88
2018-04-07T07:09:01.887Z,6.89
2018-04-07T07:10:01.812Z,7.03
2018-04-07T07:11:01.805Z,7.07
2018-04-07T07:12:01.798Z,7.11
2018-04-07T07:13:01.792Z,7.24
2018-04-07T07:14:01.785Z,7.17
2018-04-07T07:15:01.781Z,7.24
2018-04-07T07:16:01.777Z,7.31
2018-04-07T07:17:01.769Z,7.32
2018-04-07T07:18:01.761Z,7.42
2018-04-07T07:19:01.755Z,7.45
2018-04-07T07:20:01.750Z,7.54
2018-04-07T07:21:01.744Z,7.66
2018-04-07T07:22:01.737Z,7.70
2018-04-07T07:23:01.732Z,7.76
2018-04-07T07:24:01.726Z,7.75
2018-04-07T07:25:01.719Z,7.85
2018-04-07T07:26:01.714Z,7.94
2018-04-07T07:27:01.708Z,7.95
2018-04-07T07:28:01.703Z,8.06
2018-04-07T07:29:01.697Z,8.13
2018-04-07T07:30:01.696Z,8.18
2018-04-07T07:31:01.686Z,8.31
2018-04-07T07:32:01.683Z,8.28
2018-04-07T07:33:01.676Z,8.42
2018-04-07T07:34:01.668Z,8.46
2018-04-07T07:35:01.664Z,8.49
2018-04-07T07:36:01.660Z,8.60
2018-04-07T07:37:01.652Z,8.58
2018-04-07T07:38:01.649Z,8.58
2018-04-07T07:39:01.644Z,8.67
2018-04-07T07:40:01.636Z,8.71
2018-04-07T07:41:01.629Z,8.79
2018-04-07T07:42:01.646Z,8.79
2018-04-07T07:43:01.620Z,8.76
2018-04-07T07:44:01.623Z,8.85
2018-04-07T07:45:01.611Z,8.87
2018-04-07T07:46:01.612Z,8.92
2018-04-07T07:47:01.610Z,8.92
2018-04-07T07:48:01.609Z,9.02
2018-04-07T07:49:01.603Z,8.99
2018-04-07T07:50:01.584Z,8.99
2018-04-07T07:51:01.579Z,9.13
2018-04-07T07:52:01.574Z,9.06
2018-04-07T07:53:01.571Z,9.18
2018-04-07T07:54:01.564Z,9.06
2018-04-07T07:55:01.559Z,9.18
2018-04-07T07:56:01.555Z,9.19
2018-04-07T07:57:01.549Z,9.16
2018-04-07T07:58:01.545Z,9.21
2018-04-07T07:59:01.539Z,9.26
2018-04-07T08:00:01.536Z,9.37
2018-04-07T08:01:01.542Z,9.48
2018-04-07T08:02:01.530Z,9.43
2018-04-07T08:03:01.557Z,9.43
2018-04-07T08:04:01.516Z,9.65
2018-04-07T08:05:01.511Z,9.62
2018-04-07T08:06:01.506Z,9.58
2018-04-07T08:07:01.503Z,9.66
2018-04-07T08:08:01.498Z,9.76
2018-04-07T08:09:01.492Z,9.80
2018-04-07T08:10:01.490Z,9.86
2018-04-07T08:11:01.487Z,9.84
2018-04-07T08:12:01.479Z,9.98
2018-04-07T08:13:01.474Z,9.95
2018-04-07T08:14:01.471Z,9.99
2018-04-07T08:15:01.471Z,10.04
2018-04-07T08:16:01.462Z,10.04
2018-04-07T08:17:01.459Z,10.01
2018-04-07T08:18:01.455Z,10.09
2018-04-07T08:19:01.449Z,10.22
2018-04-07T08:20:01.446Z,10.23
2018-04-07T08:21:01.440Z,10.19
2018-04-07T08:22:01.438Z,10.26
2018-04-07T08:23:01.433Z,10.30
2018-04-07T08:24:01.430Z,10.37
2018-04-07T08:25:01.424Z,10.48
2018-04-07T08:26:01.423Z,10.40
2018-04-07T08:27:01.417Z,10.51
2018-04-07T08:28:01.414Z,10.54
2018-04-07T08:29:01.408Z,10.63
2018-04-07T08:30:01.412Z,10.68
2018-04-07T08:31:01.400Z,10.68
2018-04-07T08:32:01.456Z,10.63
2018-04-07T08:33:01.392Z,10.71
2018-04-07T08:34:01.391Z,10.71
2018-04-07T08:35:01.401Z,10.82
2018-04-07T08:36:01.382Z,10.82
2018-04-07T08:37:01.378Z,10.86
2018-04-07T08:38:01.381Z,10.82
2018-04-07T08:39:01.369Z,10.97
2018-04-07T08:40:01.369Z,10.90
2018-04-07T08:41:01.364Z,10.92
2018-04-07T08:42:01.363Z,10.86
2018-04-07T08:43:01.364Z,10.90
2018-04-07T08:44:01.354Z,11.02
2018-04-07T08:45:01.353Z,10.96
2018-04-07T08:46:01.352Z,11.07
2018-04-07T08:47:01.345Z,11.07
2018-04-07T08:48:01.345Z,11.17
2018-04-07T08:49:01.336Z,11.26
2018-04-07T08:50:01.333Z,11.27
2018-04-07T08:51:01.341Z,11.35
2018-04-07T08:52:01.327Z,11.33
2018-04-07T08:53:01.325Z,11.41
2018-04-07T08:54:01.324Z,11.51
2018-04-07T08:55:01.318Z,11.45
2018-04-07T08:56:01.319Z,11.57
2018-04-07T08:57:01.334Z,11.62
2018-04-07T08:58:01.309Z,11.73
2018-04-07T08:59:01.308Z,11.73
2018-04-07T09:00:01.323Z,11.87
2018-04-07T09:01:01.299Z,11.84
2018-04-07T09:02:01.295Z,11.94
2018-04-07T09:03:01.297Z,12.02
2018-04-07T09:04:01.296Z,12.07
2018-04-07T09:05:01.300Z,12.09
2018-04-07T09:06:01.285Z,11.99
2018-04-07T09:07:01.293Z,12.06
2018-04-07T09:08:01.281Z,12.15
2018-04-07T09:09:01.277Z,12.07
2018-04-07T09:10:01.279Z,12.22
2018-04-07T09:11:01.272Z,12.27
2018-04-07T09:12:01.275Z,12.28
2018-04-07T09:13:01.273Z,12.37
2018-04-07T09:14:01.266Z,12.36
2018-04-07T09:15:01.264Z,12.39
2018-04-07T09:16:01.259Z,12.37
2018-04-07T09:17:01.257Z,12.47
2018-04-07T09:18:01.254Z,12.45
2018-04-07T09:19:01.253Z,12.43
2018-04-07T09:20:01.250Z,12.46
2018-04-07T09:21:01.253Z,12.57
2018-04-07T09:22:01.249Z,12.55
2018-04-07T09:23:01.242Z,12.64
2018-04-07T09:24:01.244Z,12.64
2018-04-07T09:25:01.242Z,12.65
2018-04-07T09:26:01.238Z,12.68
2018-04-07T09:27:01.250Z,12.87
2018-04-07T09:28:01.274Z,12.97
2018-04-07T09:29:01.235Z,12.98
2018-04-07T09:30:01.230Z,12.98
2018-04-07T09:31:01.228Z,13.11
2018-04-07T09:32:01.228Z,13.19
2018-04-07T09:33:01.225Z,13.27
2018-04-07T09:34:01.226Z,13.35
2018-04-07T09:35:01.219Z,13.41
2018-04-07T09:36:01.221Z,13.49
2018-04-07T09:37:01.216Z,13.46
2018-04-07T09:38:01.218Z,13.46
2018-04-07T09:39:01.213Z,13.56
2018-04-07T09:40:01.210Z,13.57
2018-04-07T09:41:01.215Z,13.65
2018-04-07T09:42:01.264Z,13.59
2018-04-07T09:43:01.210Z,13.59
2018-04-07T09:44:01.204Z,13.63
2018-04-07T09:45:01.201Z,13.68
2018-04-07T09:46:01.203Z,13.68
2018-04-07T09:47:01.200Z,13.67
2018-04-07T09:48:01.199Z,13.85
2018-04-07T09:49:01.197Z,13.81
2018-04-07T09:50:01.200Z,13.85
2018-04-07T09:51:01.197Z,13.87
2018-04-07T09:52:01.211Z,14.04
2018-04-07T09:53:01.191Z,14.08
2018-04-07T09:54:01.193Z,14.08
2018-04-07T09:55:01.190Z,14.08
2018-04-07T09:56:01.189Z,14.12
2018-04-07T09:57:01.191Z,14.20
2018-04-07T09:58:01.207Z,14.28
2018-04-07T09:59:01.186Z,14.40
2018-04-07T10:00:01.185Z,14.36
2018-04-07T10:01:01.186Z,14.40
2018-04-07T10:02:01.182Z,14.47
2018-04-07T10:03:01.182Z,14.47
2018-04-07T10:04:01.187Z,14.51
2018-04-07T10:05:01.179Z,14.51
2018-04-07T10:06:01.179Z,14.55
2018-04-07T10:07:01.179Z,14.66
2018-04-07T10:08:01.177Z,14.55
2018-04-07T10:09:01.181Z,14.78
2018-04-07T10:10:01.176Z,14.89
2018-04-07T10:11:01.176Z,14.86
2018-04-07T10:12:01.179Z,14.91
2018-04-07T10:13:01.175Z,15.02
2018-04-07T10:14:01.174Z,15.03
2018-04-07T10:15:01.175Z,15.02
2018-04-07T10:16:01.178Z,15.04
2018-04-07T10:17:01.172Z,15.07
2018-04-07T10:18:01.172Z,15.18
2018-04-07T10:19:01.172Z,15.17
2018-04-07T10:20:01.180Z,15.29
2018-04-07T10:21:01.175Z,15.28
2018-04-07T10:22:01.183Z,15.36
2018-04-07T10:23:01.186Z,15.47
2018-04-07T10:24:01.172Z,15.43
2018-04-07T10:25:01.173Z,15.59
2018-04-07T10:26:01.173Z,15.68
2018-04-07T10:27:01.174Z,15.83
2018-04-07T10:28:01.172Z,15.82
2018-04-07T10:29:01.170Z,15.82
2018-04-07T10:30:01.172Z,15.82
2018-04-07T10:31:01.171Z,15.91
2018-04-07T10:32:01.173Z,15.94
2018-04-07T10:33:01.171Z,16.05
2018-04-07T10:34:01.171Z,16.17
2018-04-07T10:35:01.172Z,16.31
2018-04-07T10:36:01.191Z,16.42
2018-04-07T10:37:01.173Z,16.49
2018-04-07T10:38:01.174Z,16.43
2018-04-07T10:39:01.174Z,16.54
2018-04-07T10:40:01.174Z,16.68
2018-04-07T10:41:01.174Z,16.66
2018-04-07T10:42:01.178Z,16.72
2018-04-07T10:43:01.176Z,16.90
2018-04-07T10:44:01.175Z,17.01
2018-04-07T10:45:01.175Z,17.06
2018-04-07T10:46:01.179Z,17.04
2018-04-07T10:47:01.179Z,17.11
2018-04-07T10:48:01.179Z,17.12
2018-04-07T10:49:01.179Z,17.19
2018-04-07T10:50:01.182Z,17.16
2018-04-07T10:51:01.182Z,17.16
2018-04-07T10:52:01.184Z,17.31
2018-04-07T10:53:01.184Z,17.22
2018-04-07T10:54:01.183Z,17.27
2018-04-07T10:55:01.185Z,17.31
2018-04-07T10:56:01.186Z,17.33
2018-04-07T10:57:01.187Z,17.33
2018-04-07T10:58:01.192Z,17.38
2018-04-07T10:59:01.189Z,17.45
2018-04-07T11:00:01.190Z,17.48
2018-04-07T11:01:01.191Z,17.54
2018-04-07T11:02:01.193Z,17.52
2018-04-07T11:03:01.195Z,17.60
2018-04-07T11:04:01.197Z,17.65
2018-04-07T11:05:01.203Z,17.57
2018-04-07T11:06:01.198Z,17.67
2018-04-07T11:07:01.199Z,17.71
2018-04-07T11:08:01.202Z,17.67
2018-04-07T11:09:01.202Z,17.70
2018-04-07T11:10:01.203Z,17.74
2018-04-07T11:11:01.207Z,17.70
2018-04-07T11:12:01.208Z,17.68
2018-04-07T11:13:01.207Z,17.70
2018-04-07T11:14:01.220Z,17.72
2018-04-07T11:15:01.212Z,17.83
2018-04-07T11:16:01.213Z,17.87
2018-04-07T11:17:01.216Z,17.89
2018-04-07T11:18:01.218Z,18.03
2018-04-07T11:19:01.217Z,18.11
2018-04-07T11:20:01.224Z,18.26
2018-04-07T11:21:01.222Z,18.25
2018-04-07T11:22:01.223Z,18.40
2018-04-07T11:23:01.236Z,18.58
2018-04-07T11:24:01.233Z,18.62
2018-04-07T11:25:01.230Z,18.71
2018-04-07T11:26:01.233Z,18.84
2018-04-07T11:27:01.235Z,18.86
2018-04-07T11:28:01.257Z,18.89
2018-04-07T11:29:01.246Z,18.93
2018-04-07T11:30:01.243Z,18.93
2018-04-07T11:31:01.241Z,18.96
2018-04-07T11:32:01.245Z,18.98
2018-04-07T11:33:01.248Z,19.04
2018-04-07T11:34:01.250Z,19.14
2018-04-07T11:35:01.254Z,19.14
2018-04-07T11:36:01.253Z,19.14
2018-04-07T11:37:01.719Z,19.26
2018-04-07T11:38:01.259Z,19.22
2018-04-07T11:39:01.265Z,19.22
2018-04-07T11:40:01.263Z,19.14
2018-04-07T11:41:01.264Z,19.26
2018-04-07T11:42:01.269Z,19.18
2018-04-07T11:43:01.270Z,19.22
2018-04-07T11:44:01.272Z,19.15
2018-04-07T11:45:01.302Z,19.26
2018-04-07T11:46:01.278Z,19.11
2018-04-07T11:47:01.278Z,19.22
2018-04-07T11:48:01.282Z,19.34
2018-04-07T11:49:01.283Z,19.36
2018-04-07T11:50:01.287Z,19.40
2018-04-07T11:51:01.290Z,19.39
2018-04-07T11:52:01.296Z,19.45
2018-04-07T11:53:01.300Z,19.58
2018-04-07T11:54:01.297Z,19.49
2018-04-07T11:55:01.300Z,19.52
2018-04-07T11:56:01.304Z,19.52
2018-04-07T11:57:01.307Z,19.56
2018-04-07T11:58:01.311Z,19.67
2018-04-07T11:59:01.310Z,19.70
2018-04-07T12:00:01.314Z,19.71
2018-04-07T12:01:01.315Z,19.77
2018-04-07T12:02:01.331Z,19.69
2018-04-07T12:03:01.331Z,19.84
2018-04-07T12:04:01.328Z,19.74
2018-04-07T12:05:01.327Z,19.84
2018-04-07T12:06:01.330Z,19.82
2018-04-07T12:07:01.339Z,19.79
2018-04-07T12:08:01.337Z,19.85
2018-04-07T12:09:01.338Z,19.77
2018-04-07T12:10:01.354Z,19.86
2018-04-07T12:11:01.346Z,19.77
2018-04-07T12:12:01.353Z,19.88
2018-04-07T12:13:01.351Z,19.85
2018-04-07T12:14:01.355Z,20.02
2018-04-07T12:15:01.364Z,20.10
2018-04-07T12:16:01.365Z,20.11
2018-04-07T12:17:01.364Z,20.13
2018-04-07T12:18:01.368Z,20.13
2018-04-07T12:19:01.374Z,20.10
2018-04-07T12:20:01.373Z,20.11
2018-04-07T12:21:01.376Z,20.22
2018-04-07T12:22:01.381Z,20.24
2018-04-07T12:23:01.383Z,20.34
2018-04-07T12:24:01.502Z,20.41
2018-04-07T12:25:01.391Z,20.31
2018-04-07T12:26:01.395Z,20.29
2018-04-07T12:27:01.397Z,20.44
2018-04-07T12:28:01.412Z,20.44
2018-04-07T12:29:02.095Z,20.48
2018-04-07T12:30:01.408Z,20.51
2018-04-07T12:31:01.417Z,20.58
2018-04-07T12:32:01.416Z,20.65
2018-04-07T12:33:01.416Z,20.66
2018-04-07T12:34:01.418Z,20.67
2018-04-07T12:35:01.425Z,20.74
2018-04-07T12:36:02.117Z,20.62
2018-04-07T12:37:01.436Z,20.63
2018-04-07T12:38:01.433Z,20.69
2018-04-07T12:39:01.438Z,20.75
2018-04-07T12:40:01.445Z,20.77
2018-04-07T12:41:01.443Z,20.69
2018-04-07T12:42:01.449Z,20.72
2018-04-07T12:43:02.162Z,20.74
2018-04-07T12:44:01.495Z,20.88
2018-04-07T12:45:01.464Z,20.93
2018-04-07T12:46:01.462Z,20.93
2018-04-07T12:47:02.600Z,20.90
2018-04-07T12:48:01.493Z,20.95
2018-04-07T12:49:01.523Z,21.11
2018-04-07T12:50:01.477Z,21.11
2018-04-07T12:51:01.480Z,21.11
2018-04-07T12:52:01.557Z,21.15
2018-04-07T12:53:01.498Z,21.03
2018-04-07T12:54:01.501Z,21.09
2018-04-07T12:55:01.522Z,21.15
2018-04-07T12:56:01.518Z,21.20
2018-04-07T12:57:01.510Z,21.14
2018-04-07T12:58:01.505Z,21.14
2018-04-07T12:59:01.510Z,21.20
2018-04-07T13:00:01.515Z,21.21
2018-04-07T13:01:01.517Z,21.24
2018-04-07T13:02:01.527Z,21.30
2018-04-07T13:03:01.539Z,21.30
2018-04-07T13:04:01.531Z,21.33
2018-04-07T13:05:01.533Z,21.37
2018-04-07T13:06:01.553Z,21.46
2018-04-07T13:07:01.548Z,21.51
2018-04-07T13:08:01.550Z,21.57